sensor_id;sensor_type;location;lat;lon;timestamp;P1;durP1;ratioP1;P2;durP2;ratioP2
17915;SDS011;9083;49.156;8.982;2022-11-20T00:02:04;10.90;;;6.30;;
17915;SDS011;9083;49.156;8.982;2022-11-20T00:04:30;10.30;;;6.03;;
17915;SDS011;9083;49.156;8.982;2022-11-20T00:06:57;10.23;;;6.50;;
17915;SDS011;9083;49.156;8.982;2022-11-20T00:09:23;9.70;;;5.80;;
17915;SDS011;9083;49.156;8.982;2022-11-20T00:11:53;10.80;;;6.47;;
17915;SDS011;9083;49.156;8.982;2022-11-20T00:14:19;9.10;;;5.47;;
17915;SDS011;9083;49.156;8.982;2022-11-20T00:16:45;8.80;;;6.10;;
17915;SDS011;9083;49.156;8.982;2022-11-20T00:19:13;9.70;;;6.17;;
17915;SDS011;9083;49.156;8.982;2022-11-20T00:21:40;10.47;;;5.83;;
17915;SDS011;9083;49.156;8.982;2022-11-20T00:24:08;11.73;;;6.60;;
17915;SDS011;9083;49.156;8.982;2022-11-20T00:26:35;11.90;;;6.80;;
17915;SDS011;9083;49.156;8.982;2022-11-20T00:29:01;9.40;;;5.93;;
17915;SDS011;9083;49.156;8.982;2022-11-20T00:31:28;10.23;;;6.40;;
17915;SDS011;9083;49.156;8.982;2022-11-20T00:33:55;8.50;;;5.63;;
17915;SDS011;9083;49.156;8.982;2022-11-20T00:36:23;8.33;;;5.23;;
17915;SDS011;9083;49.156;8.982;2022-11-20T00:38:51;10.33;;;6.20;;
17915;SDS011;9083;49.156;8.982;2022-11-20T00:41:17;13.00;;;6.30;;
17915;SDS011;9083;49.156;8.982;2022-11-20T00:43:43;10.17;;;5.80;;
17915;SDS011;9083;49.156;8.982;2022-11-20T00:46:11;9.40;;;5.80;;
17915;SDS011;9083;49.156;8.982;2022-11-20T00:48:38;8.77;;;6.27;;
17915;SDS011;9083;49.156;8.982;2022-11-20T00:51:05;6.33;;;5.10;;
17915;SDS011;9083;49.156;8.982;2022-11-20T00:53:33;9.17;;;5.83;;
17915;SDS011;9083;49.156;8.982;2022-11-20T00:56:00;9.17;;;5.43;;
17915;SDS011;9083;49.156;8.982;2022-11-20T00:58:28;11.00;;;6.03;;
17915;SDS011;9083;49.156;8.982;2022-11-20T01:00:59;9.03;;;5.70;;
17915;SDS011;9083;49.156;8.982;2022-11-20T01:03:25;10.70;;;6.40;;
17915;SDS011;9083;49.156;8.982;2022-11-20T01:05:52;10.00;;;6.50;;
17915;SDS011;9083;49.156;8.982;2022-11-20T01:08:18;12.50;;;6.67;;
17915;SDS011;9083;49.156;8.982;2022-11-20T01:10:46;12.43;;;6.40;;
17915;SDS011;9083;49.156;8.982;2022-11-20T01:13:13;11.03;;;6.83;;
17915;SDS011;9083;49.156;8.982;2022-11-20T01:16:01;10.67;;;5.93;;
17915;SDS011;9083;49.156;8.982;2022-11-20T01:18:27;14.57;;;7.23;;
17915;SDS011;9083;49.156;8.982;2022-11-20T01:20:54;10.40;;;6.13;;
17915;SDS011;9083;49.156;8.982;2022-11-20T01:23:20;11.53;;;6.83;;
17915;SDS011;9083;49.156;8.982;2022-11-20T01:25:48;9.73;;;6.80;;
17915;SDS011;9083;49.156;8.982;2022-11-20T01:28:14;11.97;;;7.07;;
17915;SDS011;9083;49.156;8.982;2022-11-20T01:30:44;12.30;;;7.20;;
17915;SDS011;9083;49.156;8.982;2022-11-20T01:33:10;12.10;;;7.00;;
17915;SDS011;9083;49.156;8.982;2022-11-20T01:35:36;11.80;;;7.17;;
17915;SDS011;9083;49.156;8.982;2022-11-20T01:38:03;11.23;;;7.17;;
17915;SDS011;9083;49.156;8.982;2022-11-20T01:40:29;10.83;;;6.27;;
17915;SDS011;9083;49.156;8.982;2022-11-20T01:43:01;13.37;;;7.10;;
17915;SDS011;9083;49.156;8.982;2022-11-20T01:45:58;10.27;;;6.33;;
17915;SDS011;9083;49.156;8.982;2022-11-20T01:48:25;12.80;;;6.43;;
17915;SDS011;9083;49.156;8.982;2022-11-20T01:50:52;11.87;;;6.90;;
17915;SDS011;9083;49.156;8.982;2022-11-20T01:53:20;12.00;;;6.73;;
17915;SDS011;9083;49.156;8.982;2022-11-20T01:55:48;12.70;;;7.13;;
17915;SDS011;9083;49.156;8.982;2022-11-20T01:58:17;12.57;;;7.70;;
17915;SDS011;9083;49.156;8.982;2022-11-20T02:00:45;13.53;;;8.13;;
17915;SDS011;9083;49.156;8.982;2022-11-20T02:03:12;12.43;;;7.37;;
17915;SDS011;9083;49.156;8.982;2022-11-20T02:05:40;14.40;;;7.23;;
17915;SDS011;9083;49.156;8.982;2022-11-20T02:08:08;12.90;;;7.13;;
17915;SDS011;9083;49.156;8.982;2022-11-20T02:10:34;13.17;;;7.00;;
17915;SDS011;9083;49.156;8.982;2022-11-20T02:13:01;14.93;;;7.70;;
17915;SDS011;9083;49.156;8.982;2022-11-20T02:15:46;12.70;;;7.43;;
17915;SDS011;9083;49.156;8.982;2022-11-20T02:18:13;14.77;;;7.87;;
17915;SDS011;9083;49.156;8.982;2022-11-20T02:20:40;17.60;;;7.13;;
17915;SDS011;9083;49.156;8.982;2022-11-20T02:23:08;13.37;;;7.03;;
17915;SDS011;9083;49.156;8.982;2022-11-20T02:25:38;11.07;;;7.10;;
17915;SDS011;9083;49.156;8.982;2022-11-20T02:28:05;11.53;;;7.00;;
17915;SDS011;9083;49.156;8.982;2022-11-20T02:30:31;11.50;;;6.27;;
17915;SDS011;9083;49.156;8.982;2022-11-20T02:32:58;12.97;;;7.27;;
17915;SDS011;9083;49.156;8.982;2022-11-20T02:38:06;12.50;;;7.00;;
17915;SDS011;9083;49.156;8.982;2022-11-20T02:40:32;11.03;;;6.73;;
17915;SDS011;9083;49.156;8.982;2022-11-20T02:43:00;49.40;;;16.27;;
17915;SDS011;9083;49.156;8.982;2022-11-20T02:45:26;52.00;;;15.57;;
17915;SDS011;9083;49.156;8.982;2022-11-20T02:47:53;38.00;;;13.27;;
17915;SDS011;9083;49.156;8.982;2022-11-20T02:50:19;37.43;;;14.00;;
17915;SDS011;9083;49.156;8.982;2022-11-20T02:52:46;33.00;;;13.37;;
17915;SDS011;9083;49.156;8.982;2022-11-20T02:55:12;26.80;;;12.03;;
17915;SDS011;9083;49.156;8.982;2022-11-20T02:57:39;28.07;;;11.50;;
17915;SDS011;9083;49.156;8.982;2022-11-20T03:00:07;24.93;;;11.07;;
17915;SDS011;9083;49.156;8.982;2022-11-20T03:02:34;24.17;;;10.63;;
17915;SDS011;9083;49.156;8.982;2022-11-20T03:05:00;25.50;;;11.37;;
17915;SDS011;9083;49.156;8.982;2022-11-20T03:07:27;24.13;;;9.67;;
17915;SDS011;9083;49.156;8.982;2022-11-20T03:09:53;22.07;;;9.93;;
17915;SDS011;9083;49.156;8.982;2022-11-20T03:12:20;20.63;;;9.27;;
17915;SDS011;9083;49.156;8.982;2022-11-20T03:14:46;18.10;;;8.77;;
17915;SDS011;9083;49.156;8.982;2022-11-20T03:17:14;20.03;;;9.20;;
17915;SDS011;9083;49.156;8.982;2022-11-20T03:19:41;18.57;;;8.23;;
17915;SDS011;9083;49.156;8.982;2022-11-20T03:22:08;20.60;;;9.20;;
17915;SDS011;9083;49.156;8.982;2022-11-20T03:24:34;17.40;;;8.13;;
17915;SDS011;9083;49.156;8.982;2022-11-20T03:27:01;17.47;;;8.40;;
17915;SDS011;9083;49.156;8.982;2022-11-20T03:29:27;17.87;;;8.80;;
17915;SDS011;9083;49.156;8.982;2022-11-20T03:31:54;15.83;;;8.07;;
17915;SDS011;9083;49.156;8.982;2022-11-20T03:34:22;13.77;;;8.47;;
17915;SDS011;9083;49.156;8.982;2022-11-20T03:36:48;19.50;;;8.80;;
17915;SDS011;9083;49.156;8.982;2022-11-20T03:39:14;13.17;;;7.03;;
17915;SDS011;9083;49.156;8.982;2022-11-20T03:41:41;14.00;;;8.40;;
17915;SDS011;9083;49.156;8.982;2022-11-20T03:44:09;15.03;;;7.63;;
17915;SDS011;9083;49.156;8.982;2022-11-20T03:46:36;13.03;;;7.73;;
17915;SDS011;9083;49.156;8.982;2022-11-20T03:49:03;12.97;;;7.53;;
17915;SDS011;9083;49.156;8.982;2022-11-20T03:51:31;12.37;;;7.43;;
17915;SDS011;9083;49.156;8.982;2022-11-20T03:53:58;12.27;;;7.20;;
17915;SDS011;9083;49.156;8.982;2022-11-20T03:56:25;10.50;;;6.77;;
17915;SDS011;9083;49.156;8.982;2022-11-20T03:58:52;9.17;;;6.77;;
17915;SDS011;9083;49.156;8.982;2022-11-20T04:01:20;11.23;;;6.57;;
17915;SDS011;9083;49.156;8.982;2022-11-20T04:03:47;13.27;;;6.33;;
17915;SDS011;9083;49.156;8.982;2022-11-20T04:06:14;9.83;;;6.20;;
17915;SDS011;9083;49.156;8.982;2022-11-20T04:08:42;14.73;;;7.23;;
17915;SDS011;9083;49.156;8.982;2022-11-20T04:11:09;12.63;;;7.10;;
17915;SDS011;9083;49.156;8.982;2022-11-20T04:13:36;12.37;;;6.50;;
17915;SDS011;9083;49.156;8.982;2022-11-20T04:16:02;13.23;;;6.57;;
17915;SDS011;9083;49.156;8.982;2022-11-20T04:18:29;10.83;;;6.30;;
17915;SDS011;9083;49.156;8.982;2022-11-20T04:20:56;9.90;;;5.80;;
17915;SDS011;9083;49.156;8.982;2022-11-20T04:23:22;11.50;;;6.80;;
17915;SDS011;9083;49.156;8.982;2022-11-20T04:25:50;11.97;;;7.00;;
17915;SDS011;9083;49.156;8.982;2022-11-20T04:28:16;7.50;;;5.63;;
17915;SDS011;9083;49.156;8.982;2022-11-20T04:30:43;8.67;;;5.80;;
17915;SDS011;9083;49.156;8.982;2022-11-20T04:33:09;10.67;;;5.37;;
17915;SDS011;9083;49.156;8.982;2022-11-20T04:35:36;9.50;;;5.97;;
17915;SDS011;9083;49.156;8.982;2022-11-20T04:38:03;9.03;;;5.73;;
17915;SDS011;9083;49.156;8.982;2022-11-20T04:40:30;9.73;;;5.70;;
17915;SDS011;9083;49.156;8.982;2022-11-20T04:42:58;9.13;;;5.70;;
17915;SDS011;9083;49.156;8.982;2022-11-20T04:45:24;6.67;;;5.07;;
17915;SDS011;9083;49.156;8.982;2022-11-20T04:47:51;7.13;;;5.47;;
17915;SDS011;9083;49.156;8.982;2022-11-20T04:50:17;10.07;;;5.57;;
17915;SDS011;9083;49.156;8.982;2022-11-20T04:52:44;7.13;;;5.27;;
17915;SDS011;9083;49.156;8.982;2022-11-20T04:55:10;8.97;;;5.20;;
17915;SDS011;9083;49.156;8.982;2022-11-20T04:57:37;7.60;;;5.13;;
17915;SDS011;9083;49.156;8.982;2022-11-20T05:00:05;7.27;;;4.67;;
17915;SDS011;9083;49.156;8.982;2022-11-20T05:02:32;6.43;;;5.27;;
17915;SDS011;9083;49.156;8.982;2022-11-20T05:04:58;7.70;;;5.27;;
17915;SDS011;9083;49.156;8.982;2022-11-20T05:07:25;8.03;;;5.57;;
17915;SDS011;9083;49.156;8.982;2022-11-20T05:09:51;8.43;;;5.47;;
17915;SDS011;9083;49.156;8.982;2022-11-20T05:12:18;9.87;;;5.40;;
17915;SDS011;9083;49.156;8.982;2022-11-20T05:14:44;10.00;;;5.13;;
17915;SDS011;9083;49.156;8.982;2022-11-20T05:17:12;8.90;;;5.37;;
17915;SDS011;9083;49.156;8.982;2022-11-20T05:19:39;5.00;;;4.47;;
17915;SDS011;9083;49.156;8.982;2022-11-20T05:22:05;9.13;;;4.60;;
17915;SDS011;9083;49.156;8.982;2022-11-20T05:24:32;6.73;;;4.97;;
17915;SDS011;9083;49.156;8.982;2022-11-20T05:26:58;7.97;;;5.50;;
17915;SDS011;9083;49.156;8.982;2022-11-20T05:29:25;9.40;;;5.77;;
17915;SDS011;9083;49.156;8.982;2022-11-20T05:31:51;10.97;;;5.40;;
17915;SDS011;9083;49.156;8.982;2022-11-20T05:34:19;6.53;;;4.60;;
17915;SDS011;9083;49.156;8.982;2022-11-20T05:36:45;4.53;;;4.13;;
17915;SDS011;9083;49.156;8.982;2022-11-20T05:39:15;7.20;;;4.30;;
17915;SDS011;9083;49.156;8.982;2022-11-20T05:41:41;6.43;;;5.27;;
17915;SDS011;9083;49.156;8.982;2022-11-20T05:44:09;8.27;;;4.90;;
17915;SDS011;9083;49.156;8.982;2022-11-20T05:46:36;6.60;;;5.13;;
17915;SDS011;9083;49.156;8.982;2022-11-20T05:49:02;8.03;;;4.57;;
17915;SDS011;9083;49.156;8.982;2022-11-20T05:51:30;4.80;;;4.10;;
17915;SDS011;9083;49.156;8.982;2022-11-20T05:53:56;8.03;;;4.93;;
17915;SDS011;9083;49.156;8.982;2022-11-20T05:56:23;6.23;;;4.33;;
17915;SDS011;9083;49.156;8.982;2022-11-20T05:58:50;7.77;;;4.50;;
17915;SDS011;9083;49.156;8.982;2022-11-20T06:01:17;7.00;;;4.60;;
17915;SDS011;9083;49.156;8.982;2022-11-20T06:03:44;5.07;;;3.90;;
17915;SDS011;9083;49.156;8.982;2022-11-20T06:06:12;5.07;;;4.47;;
17915;SDS011;9083;49.156;8.982;2022-11-20T06:08:40;5.07;;;3.77;;
17915;SDS011;9083;49.156;8.982;2022-11-20T06:11:07;4.80;;;4.17;;
17915;SDS011;9083;49.156;8.982;2022-11-20T06:13:34;4.37;;;3.77;;
17915;SDS011;9083;49.156;8.982;2022-11-20T06:16:00;4.53;;;3.37;;
17915;SDS011;9083;49.156;8.982;2022-11-20T06:18:27;7.80;;;3.57;;
17915;SDS011;9083;49.156;8.982;2022-11-20T06:21:00;4.43;;;4.03;;
17915;SDS011;9083;49.156;8.982;2022-11-20T06:23:27;3.87;;;3.27;;
17915;SDS011;9083;49.156;8.982;2022-11-20T06:25:55;5.80;;;3.57;;
17915;SDS011;9083;49.156;8.982;2022-11-20T06:28:22;5.43;;;4.00;;
17915;SDS011;9083;49.156;8.982;2022-11-20T06:30:48;5.93;;;4.03;;
17915;SDS011;9083;49.156;8.982;2022-11-20T06:33:15;5.50;;;3.53;;
17915;SDS011;9083;49.156;8.982;2022-11-20T06:35:41;5.13;;;3.70;;
17915;SDS011;9083;49.156;8.982;2022-11-20T06:38:07;4.37;;;3.67;;
17915;SDS011;9083;49.156;8.982;2022-11-20T06:40:34;5.60;;;3.87;;
17915;SDS011;9083;49.156;8.982;2022-11-20T06:43:02;8.63;;;4.10;;
17915;SDS011;9083;49.156;8.982;2022-11-20T06:45:28;4.07;;;3.43;;
17915;SDS011;9083;49.156;8.982;2022-11-20T06:47:56;3.53;;;3.23;;
17915;SDS011;9083;49.156;8.982;2022-11-20T06:50:23;3.80;;;3.37;;
17915;SDS011;9083;49.156;8.982;2022-11-20T06:52:49;4.00;;;3.50;;
17915;SDS011;9083;49.156;8.982;2022-11-20T06:55:16;3.57;;;3.20;;
17915;SDS011;9083;49.156;8.982;2022-11-20T06:57:42;3.80;;;3.50;;
17915;SDS011;9083;49.156;8.982;2022-11-20T07:00:11;3.83;;;3.50;;
17915;SDS011;9083;49.156;8.982;2022-11-20T07:02:37;3.80;;;3.40;;
17915;SDS011;9083;49.156;8.982;2022-11-20T07:05:04;5.33;;;3.60;;
17915;SDS011;9083;49.156;8.982;2022-11-20T07:07:30;4.33;;;3.30;;
17915;SDS011;9083;49.156;8.982;2022-11-20T07:09:57;3.83;;;3.43;;
17915;SDS011;9083;49.156;8.982;2022-11-20T07:12:24;4.77;;;3.47;;
17915;SDS011;9083;49.156;8.982;2022-11-20T07:14:50;5.40;;;3.37;;
17915;SDS011;9083;49.156;8.982;2022-11-20T07:17:18;3.37;;;3.03;;
17915;SDS011;9083;49.156;8.982;2022-11-20T07:19:44;3.57;;;3.20;;
17915;SDS011;9083;49.156;8.982;2022-11-20T07:22:11;3.67;;;3.33;;
17915;SDS011;9083;49.156;8.982;2022-11-20T07:24:38;3.37;;;3.07;;
17915;SDS011;9083;49.156;8.982;2022-11-20T07:27:04;4.73;;;3.60;;
17915;SDS011;9083;49.156;8.982;2022-11-20T07:29:31;9.63;;;5.63;;
17915;SDS011;9083;49.156;8.982;2022-11-20T07:31:57;10.33;;;5.53;;
17915;SDS011;9083;49.156;8.982;2022-11-20T07:34:25;4.57;;;3.90;;
17915;SDS011;9083;49.156;8.982;2022-11-20T07:36:52;3.63;;;3.20;;
17915;SDS011;9083;49.156;8.982;2022-11-20T07:39:18;3.90;;;3.30;;
17915;SDS011;9083;49.156;8.982;2022-11-20T07:41:45;4.87;;;3.67;;
17915;SDS011;9083;49.156;8.982;2022-11-20T07:44:11;4.53;;;3.13;;
17915;SDS011;9083;49.156;8.982;2022-11-20T07:46:38;5.97;;;3.67;;
17915;SDS011;9083;49.156;8.982;2022-11-20T07:49:04;3.97;;;3.20;;
17915;SDS011;9083;49.156;8.982;2022-11-20T07:51:32;3.67;;;3.13;;
17915;SDS011;9083;49.156;8.982;2022-11-20T07:53:58;4.67;;;3.60;;
17915;SDS011;9083;49.156;8.982;2022-11-20T07:56:25;4.50;;;4.07;;
17915;SDS011;9083;49.156;8.982;2022-11-20T07:58:51;6.93;;;4.27;;
17915;SDS011;9083;49.156;8.982;2022-11-20T08:01:18;5.70;;;4.33;;
17915;SDS011;9083;49.156;8.982;2022-11-20T08:03:44;3.83;;;3.27;;
17915;SDS011;9083;49.156;8.982;2022-11-20T08:06:10;3.70;;;3.40;;
17915;SDS011;9083;49.156;8.982;2022-11-20T08:08:38;4.83;;;3.80;;
17915;SDS011;9083;49.156;8.982;2022-11-20T08:11:05;3.97;;;3.50;;
17915;SDS011;9083;49.156;8.982;2022-11-20T08:13:49;5.83;;;3.97;;
17915;SDS011;9083;49.156;8.982;2022-11-20T08:16:33;9.50;;;5.87;;
17915;SDS011;9083;49.156;8.982;2022-11-20T08:18:59;9.90;;;4.60;;
17915;SDS011;9083;49.156;8.982;2022-11-20T08:21:26;5.47;;;3.53;;
17915;SDS011;9083;49.156;8.982;2022-11-20T08:23:54;5.87;;;3.57;;
17915;SDS011;9083;49.156;8.982;2022-11-20T08:26:20;6.47;;;4.20;;
17915;SDS011;9083;49.156;8.982;2022-11-20T08:28:47;5.57;;;4.07;;
17915;SDS011;9083;49.156;8.982;2022-11-20T08:31:13;6.77;;;4.23;;
17915;SDS011;9083;49.156;8.982;2022-11-20T08:33:40;9.70;;;5.27;;
17915;SDS011;9083;49.156;8.982;2022-11-20T08:36:06;9.27;;;5.03;;
17915;SDS011;9083;49.156;8.982;2022-11-20T08:38:33;8.67;;;5.00;;
17915;SDS011;9083;49.156;8.982;2022-11-20T08:41:02;4.77;;;3.83;;
17915;SDS011;9083;49.156;8.982;2022-11-20T08:43:46;4.43;;;4.03;;
17915;SDS011;9083;49.156;8.982;2022-11-20T08:46:12;6.93;;;3.30;;
17915;SDS011;9083;49.156;8.982;2022-11-20T08:48:39;4.37;;;3.97;;
17915;SDS011;9083;49.156;8.982;2022-11-20T08:51:06;4.73;;;3.50;;
17915;SDS011;9083;49.156;8.982;2022-11-20T08:53:32;4.33;;;3.93;;
17915;SDS011;9083;49.156;8.982;2022-11-20T08:55:58;7.03;;;3.83;;
17915;SDS011;9083;49.156;8.982;2022-11-20T08:58:26;3.83;;;3.43;;
17915;SDS011;9083;49.156;8.982;2022-11-20T09:00:53;4.30;;;3.70;;
17915;SDS011;9083;49.156;8.982;2022-11-20T09:03:19;3.60;;;3.30;;
17915;SDS011;9083;49.156;8.982;2022-11-20T09:05:46;3.40;;;2.80;;
17915;SDS011;9083;49.156;8.982;2022-11-20T09:08:12;5.67;;;4.30;;
17915;SDS011;9083;49.156;8.982;2022-11-20T09:10:39;16.70;;;8.23;;
17915;SDS011;9083;49.156;8.982;2022-11-20T09:13:05;33.63;;;10.67;;
17915;SDS011;9083;49.156;8.982;2022-11-20T09:15:33;10.83;;;5.53;;
17915;SDS011;9083;49.156;8.982;2022-11-20T09:18:01;7.63;;;4.13;;
17915;SDS011;9083;49.156;8.982;2022-11-20T09:20:28;18.83;;;6.73;;
17915;SDS011;9083;49.156;8.982;2022-11-20T09:22:55;15.50;;;6.53;;
17915;SDS011;9083;49.156;8.982;2022-11-20T09:25:22;6.07;;;3.70;;
17915;SDS011;9083;49.156;8.982;2022-11-20T09:27:54;8.90;;;5.50;;
17915;SDS011;9083;49.156;8.982;2022-11-20T09:30:20;3.93;;;3.63;;
17915;SDS011;9083;49.156;8.982;2022-11-20T09:32:48;4.57;;;4.10;;
17915;SDS011;9083;49.156;8.982;2022-11-20T09:35:15;6.87;;;4.27;;
17915;SDS011;9083;49.156;8.982;2022-11-20T09:37:42;8.23;;;5.57;;
17915;SDS011;9083;49.156;8.982;2022-11-20T09:40:09;7.03;;;5.50;;
17915;SDS011;9083;49.156;8.982;2022-11-20T09:42:44;16.17;;;9.87;;
17915;SDS011;9083;49.156;8.982;2022-11-20T09:45:15;8.40;;;5.73;;
17915;SDS011;9083;49.156;8.982;2022-11-20T09:47:47;9.07;;;5.73;;
17915;SDS011;9083;49.156;8.982;2022-11-20T09:50:23;9.97;;;5.53;;
17915;SDS011;9083;49.156;8.982;2022-11-20T09:52:55;10.40;;;5.80;;
17915;SDS011;9083;49.156;8.982;2022-11-20T09:55:26;6.47;;;5.07;;
17915;SDS011;9083;49.156;8.982;2022-11-20T09:57:55;9.23;;;5.27;;
17915;SDS011;9083;49.156;8.982;2022-11-20T10:00:22;4.30;;;3.90;;
17915;SDS011;9083;49.156;8.982;2022-11-20T10:02:51;5.30;;;3.93;;
17915;SDS011;9083;49.156;8.982;2022-11-20T10:05:20;6.67;;;4.37;;
17915;SDS011;9083;49.156;8.982;2022-11-20T10:07:50;7.33;;;4.30;;
17915;SDS011;9083;49.156;8.982;2022-11-20T10:10:21;4.70;;;4.13;;
17915;SDS011;9083;49.156;8.982;2022-11-20T10:12:56;11.27;;;5.13;;
17915;SDS011;9083;49.156;8.982;2022-11-20T10:15:27;11.00;;;6.30;;
17915;SDS011;9083;49.156;8.982;2022-11-20T10:18:03;3.90;;;3.50;;
17915;SDS011;9083;49.156;8.982;2022-11-20T10:20:34;3.57;;;3.27;;
17915;SDS011;9083;49.156;8.982;2022-11-20T10:23:07;3.73;;;3.43;;
17915;SDS011;9083;49.156;8.982;2022-11-20T10:25:37;5.43;;;3.60;;
17915;SDS011;9083;49.156;8.982;2022-11-20T10:30:46;3.90;;;3.50;;
17915;SDS011;9083;49.156;8.982;2022-11-20T10:33:16;3.63;;;3.07;;
17915;SDS011;9083;49.156;8.982;2022-11-20T10:35:43;3.63;;;3.27;;
17915;SDS011;9083;49.156;8.982;2022-11-20T10:38:14;3.97;;;3.63;;
17915;SDS011;9083;49.156;8.982;2022-11-20T10:40:43;4.57;;;3.00;;
17915;SDS011;9083;49.156;8.982;2022-11-20T10:43:12;3.90;;;3.50;;
17915;SDS011;9083;49.156;8.982;2022-11-20T10:45:43;3.33;;;3.03;;
17915;SDS011;9083;49.156;8.982;2022-11-20T10:48:15;4.10;;;3.70;;
17915;SDS011;9083;49.156;8.982;2022-11-20T10:50:46;6.00;;;4.63;;
17915;SDS011;9083;49.156;8.982;2022-11-20T10:53:22;3.87;;;3.57;;
17915;SDS011;9083;49.156;8.982;2022-11-20T10:55:55;5.10;;;4.00;;
17915;SDS011;9083;49.156;8.982;2022-11-20T10:58:25;3.63;;;3.33;;
17915;SDS011;9083;49.156;8.982;2022-11-20T11:01:02;5.03;;;4.50;;
17915;SDS011;9083;49.156;8.982;2022-11-20T11:03:29;3.70;;;3.37;;
17915;SDS011;9083;49.156;8.982;2022-11-20T11:05:58;5.27;;;3.57;;
17915;SDS011;9083;49.156;8.982;2022-11-20T11:08:28;4.20;;;3.80;;
17915;SDS011;9083;49.156;8.982;2022-11-20T11:10:59;3.37;;;3.07;;
17915;SDS011;9083;49.156;8.982;2022-11-20T11:13:27;3.77;;;3.30;;
17915;SDS011;9083;49.156;8.982;2022-11-20T11:15:54;8.33;;;3.30;;
17915;SDS011;9083;49.156;8.982;2022-11-20T11:18:24;4.80;;;3.60;;
17915;SDS011;9083;49.156;8.982;2022-11-20T11:20:51;5.17;;;4.13;;
17915;SDS011;9083;49.156;8.982;2022-11-20T11:23:23;13.87;;;7.77;;
17915;SDS011;9083;49.156;8.982;2022-11-20T11:25:57;16.07;;;6.97;;
17915;SDS011;9083;49.156;8.982;2022-11-20T11:28:24;16.13;;;7.90;;
17915;SDS011;9083;49.156;8.982;2022-11-20T11:30:55;11.27;;;6.13;;
17915;SDS011;9083;49.156;8.982;2022-11-20T11:33:22;6.33;;;5.07;;
17915;SDS011;9083;49.156;8.982;2022-11-20T11:35:50;6.73;;;5.50;;
17915;SDS011;9083;49.156;8.982;2022-11-20T11:38:21;6.03;;;4.60;;
17915;SDS011;9083;49.156;8.982;2022-11-20T11:40:47;17.23;;;7.57;;
17915;SDS011;9083;49.156;8.982;2022-11-20T11:43:19;20.37;;;8.80;;
17915;SDS011;9083;49.156;8.982;2022-11-20T11:46:16;7.37;;;5.03;;
17915;SDS011;9083;49.156;8.982;2022-11-20T11:48:54;10.37;;;5.10;;
17915;SDS011;9083;49.156;8.982;2022-11-20T11:51:20;10.03;;;5.20;;
17915;SDS011;9083;49.156;8.982;2022-11-20T11:53:47;4.63;;;3.50;;
17915;SDS011;9083;49.156;8.982;2022-11-20T11:56:13;6.60;;;4.00;;
17915;SDS011;9083;49.156;8.982;2022-11-20T11:58:44;6.83;;;3.50;;
17915;SDS011;9083;49.156;8.982;2022-11-20T12:01:17;10.73;;;5.20;;
17915;SDS011;9083;49.156;8.982;2022-11-20T12:03:48;7.17;;;4.50;;
17915;SDS011;9083;49.156;8.982;2022-11-20T12:06:19;7.77;;;4.30;;
17915;SDS011;9083;49.156;8.982;2022-11-20T12:08:47;7.63;;;4.30;;
17915;SDS011;9083;49.156;8.982;2022-11-20T12:11:16;5.73;;;4.10;;
17915;SDS011;9083;49.156;8.982;2022-11-20T12:13:47;5.63;;;3.80;;
17915;SDS011;9083;49.156;8.982;2022-11-20T12:16:15;8.70;;;5.10;;
17915;SDS011;9083;49.156;8.982;2022-11-20T12:18:43;6.47;;;4.30;;
17915;SDS011;9083;49.156;8.982;2022-11-20T12:21:19;9.57;;;4.97;;
17915;SDS011;9083;49.156;8.982;2022-11-20T12:23:54;7.20;;;4.67;;
17915;SDS011;9083;49.156;8.982;2022-11-20T12:26:27;10.53;;;5.30;;
17915;SDS011;9083;49.156;8.982;2022-11-20T12:29:01;10.50;;;4.33;;
17915;SDS011;9083;49.156;8.982;2022-11-20T12:31:45;9.00;;;5.03;;
17915;SDS011;9083;49.156;8.982;2022-11-20T12:34:27;11.17;;;6.00;;
17915;SDS011;9083;49.156;8.982;2022-11-20T12:37:01;9.67;;;5.17;;
17915;SDS011;9083;49.156;8.982;2022-11-20T12:39:35;13.27;;;7.90;;
17915;SDS011;9083;49.156;8.982;2022-11-20T12:42:08;14.73;;;5.23;;
17915;SDS011;9083;49.156;8.982;2022-11-20T12:45:17;6.77;;;3.93;;
17915;SDS011;9083;49.156;8.982;2022-11-20T12:48:03;8.07;;;3.30;;
17915;SDS011;9083;49.156;8.982;2022-11-20T12:50:35;5.20;;;3.10;;
17915;SDS011;9083;49.156;8.982;2022-11-20T12:53:06;6.53;;;3.50;;
17915;SDS011;9083;49.156;8.982;2022-11-20T12:55:41;8.20;;;4.80;;
17915;SDS011;9083;49.156;8.982;2022-11-20T12:58:10;5.60;;;4.20;;
17915;SDS011;9083;49.156;8.982;2022-11-20T13:00:40;4.97;;;3.97;;
17915;SDS011;9083;49.156;8.982;2022-11-20T13:05:55;4.60;;;3.30;;
17915;SDS011;9083;49.156;8.982;2022-11-20T13:08:25;5.33;;;3.40;;
17915;SDS011;9083;49.156;8.982;2022-11-20T13:10:54;11.00;;;5.63;;
17915;SDS011;9083;49.156;8.982;2022-11-20T13:13:23;8.20;;;4.30;;
17915;SDS011;9083;49.156;8.982;2022-11-20T13:15:54;8.93;;;4.40;;
17915;SDS011;9083;49.156;8.982;2022-11-20T13:18:22;6.33;;;2.93;;
17915;SDS011;9083;49.156;8.982;2022-11-20T13:20:48;11.60;;;5.40;;
17915;SDS011;9083;49.156;8.982;2022-11-20T13:23:22;7.03;;;2.80;;
17915;SDS011;9083;49.156;8.982;2022-11-20T13:25:49;22.93;;;8.47;;
17915;SDS011;9083;49.156;8.982;2022-11-20T13:28:26;12.03;;;6.07;;
17915;SDS011;9083;49.156;8.982;2022-11-20T13:30:55;8.50;;;3.87;;
17915;SDS011;9083;49.156;8.982;2022-11-20T13:33:23;3.53;;;2.73;;
17915;SDS011;9083;49.156;8.982;2022-11-20T13:35:54;4.90;;;2.43;;
17915;SDS011;9083;49.156;8.982;2022-11-20T13:38:21;6.07;;;2.63;;
17915;SDS011;9083;49.156;8.982;2022-11-20T13:40:51;3.37;;;2.47;;
17915;SDS011;9083;49.156;8.982;2022-11-20T13:43:20;5.77;;;3.10;;
17915;SDS011;9083;49.156;8.982;2022-11-20T13:45:55;5.50;;;3.90;;
17915;SDS011;9083;49.156;8.982;2022-11-20T13:48:23;8.50;;;2.70;;
17915;SDS011;9083;49.156;8.982;2022-11-20T13:50:53;3.07;;;2.30;;
17915;SDS011;9083;49.156;8.982;2022-11-20T13:53:25;2.37;;;2.27;;
17915;SDS011;9083;49.156;8.982;2022-11-20T13:55:56;2.57;;;2.37;;
17915;SDS011;9083;49.156;8.982;2022-11-20T13:58:27;4.10;;;3.10;;
17915;SDS011;9083;49.156;8.982;2022-11-20T14:01:00;5.70;;;2.10;;
17915;SDS011;9083;49.156;8.982;2022-11-20T14:03:28;3.20;;;1.73;;
17915;SDS011;9083;49.156;8.982;2022-11-20T14:05:56;3.47;;;1.63;;
17915;SDS011;9083;49.156;8.982;2022-11-20T14:08:26;10.53;;;3.20;;
17915;SDS011;9083;49.156;8.982;2022-11-20T14:11:06;4.03;;;1.63;;
17915;SDS011;9083;49.156;8.982;2022-11-20T14:13:39;5.60;;;2.50;;
17915;SDS011;9083;49.156;8.982;2022-11-20T14:16:08;7.83;;;3.43;;
17915;SDS011;9083;49.156;8.982;2022-11-20T14:18:35;5.60;;;2.63;;
17915;SDS011;9083;49.156;8.982;2022-11-20T14:21:01;11.13;;;5.30;;
17915;SDS011;9083;49.156;8.982;2022-11-20T14:23:28;2.77;;;2.27;;
17915;SDS011;9083;49.156;8.982;2022-11-20T14:25:55;11.37;;;4.53;;
17915;SDS011;9083;49.156;8.982;2022-11-20T14:28:24;5.60;;;2.50;;
17915;SDS011;9083;49.156;8.982;2022-11-20T14:30:51;4.03;;;2.90;;
17915;SDS011;9083;49.156;8.982;2022-11-20T14:33:19;4.70;;;2.60;;
17915;SDS011;9083;49.156;8.982;2022-11-20T14:35:50;7.77;;;4.37;;
17915;SDS011;9083;49.156;8.982;2022-11-20T14:38:18;5.17;;;2.30;;
17915;SDS011;9083;49.156;8.982;2022-11-20T14:40:45;7.73;;;4.23;;
17915;SDS011;9083;49.156;8.982;2022-11-20T14:43:16;3.33;;;2.83;;
17915;SDS011;9083;49.156;8.982;2022-11-20T14:45:43;4.30;;;2.87;;
17915;SDS011;9083;49.156;8.982;2022-11-20T14:48:10;8.43;;;3.50;;
17915;SDS011;9083;49.156;8.982;2022-11-20T14:50:38;6.63;;;2.67;;
17915;SDS011;9083;49.156;8.982;2022-11-20T14:53:05;8.10;;;2.93;;
17915;SDS011;9083;49.156;8.982;2022-11-20T14:55:32;4.53;;;2.77;;
17915;SDS011;9083;49.156;8.982;2022-11-20T14:58:00;1.90;;;1.80;;
17915;SDS011;9083;49.156;8.982;2022-11-20T15:00:27;2.87;;;1.80;;
17915;SDS011;9083;49.156;8.982;2022-11-20T15:02:53;2.90;;;1.90;;
17915;SDS011;9083;49.156;8.982;2022-11-20T15:05:20;4.47;;;2.80;;
17915;SDS011;9083;49.156;8.982;2022-11-20T15:07:49;6.00;;;2.73;;
17915;SDS011;9083;49.156;8.982;2022-11-20T15:10:20;4.90;;;2.40;;
17915;SDS011;9083;49.156;8.982;2022-11-20T15:12:48;4.23;;;3.03;;